sensor_id;sensor_type;location;lat;lon;timestamp;P1;durP1;ratioP1;P2;durP2;ratioP2
1509;SDS011;746;48.688;9.428;2024-03-22T00:00:22;16.37;;;14.67;;
1509;SDS011;746;48.688;9.428;2024-03-22T00:02:42;20.10;;;15.87;;
1509;SDS011;746;48.688;9.428;2024-03-22T00:05:05;19.47;;;15.93;;
1509;SDS011;746;48.688;9.428;2024-03-22T00:07:25;16.73;;;14.93;;
1509;SDS011;746;48.688;9.428;2024-03-22T00:09:46;17.17;;;14.87;;
1509;SDS011;746;48.688;9.428;2024-03-22T00:12:07;17.50;;;14.73;;
1509;SDS011;746;48.688;9.428;2024-03-22T00:14:35;18.43;;;14.67;;
1509;SDS011;746;48.688;9.428;2024-03-22T00:16:55;17.03;;;14.63;;
1509;SDS011;746;48.688;9.428;2024-03-22T00:19:17;19.10;;;16.00;;
1509;SDS011;746;48.688;9.428;2024-03-22T00:21:38;20.13;;;14.57;;
1509;SDS011;746;48.688;9.428;2024-03-22T00:23:59;17.33;;;14.73;;
1509;SDS011;746;48.688;9.428;2024-03-22T00:26:21;16.97;;;15.17;;
1509;SDS011;746;48.688;9.428;2024-03-22T00:28:42;21.33;;;17.17;;
1509;SDS011;746;48.688;9.428;2024-03-22T00:31:02;19.17;;;15.33;;
1509;SDS011;746;48.688;9.428;2024-03-22T00:33:23;17.33;;;14.87;;
1509;SDS011;746;48.688;9.428;2024-03-22T00:35:44;18.10;;;15.27;;
1509;SDS011;746;48.688;9.428;2024-03-22T00:38:07;21.53;;;16.20;;
1509;SDS011;746;48.688;9.428;2024-03-22T00:40:27;20.83;;;16.03;;
1509;SDS011;746;48.688;9.428;2024-03-22T00:42:49;18.87;;;16.53;;
1509;SDS011;746;48.688;9.428;2024-03-22T00:45:09;16.60;;;14.60;;
1509;SDS011;746;48.688;9.428;2024-03-22T00:47:30;19.10;;;15.37;;
1509;SDS011;746;48.688;9.428;2024-03-22T00:49:51;16.60;;;14.83;;
1509;SDS011;746;48.688;9.428;2024-03-22T00:52:12;17.50;;;14.53;;
1509;SDS011;746;48.688;9.428;2024-03-22T00:54:34;16.60;;;14.80;;
1509;SDS011;746;48.688;9.428;2024-03-22T00:56:58;19.20;;;15.37;;
1509;SDS011;746;48.688;9.428;2024-03-22T00:59:19;19.13;;;15.37;;
1509;SDS011;746;48.688;9.428;2024-03-22T01:01:40;17.53;;;14.73;;
1509;SDS011;746;48.688;9.428;2024-03-22T01:04:00;20.03;;;15.57;;
1509;SDS011;746;48.688;9.428;2024-03-22T01:06:21;17.00;;;14.60;;
1509;SDS011;746;48.688;9.428;2024-03-22T01:08:44;17.30;;;14.77;;
1509;SDS011;746;48.688;9.428;2024-03-22T01:11:07;18.23;;;15.40;;
1509;SDS011;746;48.688;9.428;2024-03-22T01:13:27;19.13;;;15.30;;
1509;SDS011;746;48.688;9.428;2024-03-22T01:15:48;19.10;;;15.23;;
1509;SDS011;746;48.688;9.428;2024-03-22T01:18:09;16.47;;;14.43;;
1509;SDS011;746;48.688;9.428;2024-03-22T01:20:30;20.43;;;15.00;;
1509;SDS011;746;48.688;9.428;2024-03-22T01:22:50;18.13;;;16.10;;
1509;SDS011;746;48.688;9.428;2024-03-22T01:25:12;19.20;;;14.83;;
1509;SDS011;746;48.688;9.428;2024-03-22T01:27:33;16.63;;;14.80;;
1509;SDS011;746;48.688;9.428;2024-03-22T01:29:55;17.27;;;15.43;;
1509;SDS011;746;48.688;9.428;2024-03-22T01:32:15;20.17;;;16.47;;
1509;SDS011;746;48.688;9.428;2024-03-22T01:34:36;18.30;;;15.87;;
1509;SDS011;746;48.688;9.428;2024-03-22T01:36:56;17.63;;;15.40;;
1509;SDS011;746;48.688;9.428;2024-03-22T01:39:18;20.40;;;15.70;;
1509;SDS011;746;48.688;9.428;2024-03-22T01:41:40;18.77;;;15.70;;
1509;SDS011;746;48.688;9.428;2024-03-22T01:44:03;19.17;;;16.17;;
1509;SDS011;746;48.688;9.428;2024-03-22T01:46:23;19.73;;;16.97;;
1509;SDS011;746;48.688;9.428;2024-03-22T01:48:45;21.73;;;17.23;;
1509;SDS011;746;48.688;9.428;2024-03-22T01:51:05;20.27;;;17.30;;
1509;SDS011;746;48.688;9.428;2024-03-22T01:53:26;20.70;;;17.20;;
1509;SDS011;746;48.688;9.428;2024-03-22T01:55:46;23.03;;;18.57;;
1509;SDS011;746;48.688;9.428;2024-03-22T01:58:08;21.13;;;18.27;;
1509;SDS011;746;48.688;9.428;2024-03-22T02:00:29;22.00;;;18.27;;
1509;SDS011;746;48.688;9.428;2024-03-22T02:02:50;22.13;;;18.30;;
1509;SDS011;746;48.688;9.428;2024-03-22T02:05:11;24.13;;;18.83;;
1509;SDS011;746;48.688;9.428;2024-03-22T02:07:32;21.83;;;16.97;;
1509;SDS011;746;48.688;9.428;2024-03-22T02:09:53;19.73;;;17.30;;
1509;SDS011;746;48.688;9.428;2024-03-22T02:12:14;20.17;;;17.37;;
1509;SDS011;746;48.688;9.428;2024-03-22T02:14:40;18.67;;;16.33;;
1509;SDS011;746;48.688;9.428;2024-03-22T02:17:03;23.67;;;18.10;;
1509;SDS011;746;48.688;9.428;2024-03-22T02:19:24;21.80;;;18.73;;
1509;SDS011;746;48.688;9.428;2024-03-22T02:21:45;26.03;;;19.90;;
1509;SDS011;746;48.688;9.428;2024-03-22T02:24:07;24.57;;;19.27;;
1509;SDS011;746;48.688;9.428;2024-03-22T02:26:28;22.97;;;18.50;;
1509;SDS011;746;48.688;9.428;2024-03-22T02:28:48;22.40;;;17.73;;
1509;SDS011;746;48.688;9.428;2024-03-22T02:31:10;22.87;;;17.83;;
1509;SDS011;746;48.688;9.428;2024-03-22T02:33:30;21.80;;;17.63;;
1509;SDS011;746;48.688;9.428;2024-03-22T02:35:51;19.20;;;15.83;;
1509;SDS011;746;48.688;9.428;2024-03-22T02:38:11;18.93;;;16.20;;
1509;SDS011;746;48.688;9.428;2024-03-22T02:40:34;20.73;;;16.50;;
1509;SDS011;746;48.688;9.428;2024-03-22T02:42:54;18.73;;;16.63;;
1509;SDS011;746;48.688;9.428;2024-03-22T02:45:15;19.33;;;16.30;;
1509;SDS011;746;48.688;9.428;2024-03-22T02:47:36;18.87;;;15.93;;
1509;SDS011;746;48.688;9.428;2024-03-22T02:49:57;20.60;;;16.63;;
1509;SDS011;746;48.688;9.428;2024-03-22T02:52:17;18.23;;;15.70;;
1509;SDS011;746;48.688;9.428;2024-03-22T02:54:38;18.87;;;16.40;;
1509;SDS011;746;48.688;9.428;2024-03-22T02:57:00;18.57;;;16.07;;
1509;SDS011;746;48.688;9.428;2024-03-22T02:59:25;22.03;;;17.03;;
1509;SDS011;746;48.688;9.428;2024-03-22T03:01:45;20.07;;;16.53;;
1509;SDS011;746;48.688;9.428;2024-03-22T03:04:07;20.23;;;16.80;;
1509;SDS011;746;48.688;9.428;2024-03-22T03:06:30;20.60;;;17.33;;
1509;SDS011;746;48.688;9.428;2024-03-22T03:08:51;22.13;;;17.60;;
1509;SDS011;746;48.688;9.428;2024-03-22T03:11:11;21.50;;;17.97;;
1509;SDS011;746;48.688;9.428;2024-03-22T03:13:34;22.23;;;18.80;;
1509;SDS011;746;48.688;9.428;2024-03-22T03:15:54;20.50;;;18.33;;
1509;SDS011;746;48.688;9.428;2024-03-22T03:18:15;26.17;;;20.17;;
1509;SDS011;746;48.688;9.428;2024-03-22T03:20:35;23.97;;;18.60;;
1509;SDS011;746;48.688;9.428;2024-03-22T03:22:57;23.30;;;18.77;;
1509;SDS011;746;48.688;9.428;2024-03-22T03:25:19;22.77;;;18.77;;
1509;SDS011;746;48.688;9.428;2024-03-22T03:27:42;23.00;;;18.33;;
1509;SDS011;746;48.688;9.428;2024-03-22T03:30:05;23.43;;;19.50;;
1509;SDS011;746;48.688;9.428;2024-03-22T03:32:26;21.70;;;18.33;;
1509;SDS011;746;48.688;9.428;2024-03-22T03:34:47;22.57;;;18.30;;
1509;SDS011;746;48.688;9.428;2024-03-22T03:37:08;23.80;;;19.20;;
1509;SDS011;746;48.688;9.428;2024-03-22T03:39:29;22.23;;;18.53;;
1509;SDS011;746;48.688;9.428;2024-03-22T03:41:50;22.83;;;19.13;;
1509;SDS011;746;48.688;9.428;2024-03-22T03:44:10;23.57;;;19.37;;
1509;SDS011;746;48.688;9.428;2024-03-22T03:46:32;22.73;;;18.73;;
1509;SDS011;746;48.688;9.428;2024-03-22T03:48:52;25.87;;;19.03;;
1509;SDS011;746;48.688;9.428;2024-03-22T03:51:14;22.10;;;18.30;;
1509;SDS011;746;48.688;9.428;2024-03-22T03:53:34;21.23;;;17.57;;
1509;SDS011;746;48.688;9.428;2024-03-22T03:55:55;21.17;;;17.60;;
1509;SDS011;746;48.688;9.428;2024-03-22T03:58:15;23.27;;;17.50;;
1509;SDS011;746;48.688;9.428;2024-03-22T04:00:37;25.10;;;18.97;;
1509;SDS011;746;48.688;9.428;2024-03-22T04:02:59;21.27;;;17.80;;
1509;SDS011;746;48.688;9.428;2024-03-22T04:05:21;21.27;;;17.53;;
1509;SDS011;746;48.688;9.428;2024-03-22T04:07:40;23.97;;;18.73;;
1509;SDS011;746;48.688;9.428;2024-03-22T04:10:02;21.83;;;17.73;;
1509;SDS011;746;48.688;9.428;2024-03-22T04:12:22;22.87;;;18.00;;
1509;SDS011;746;48.688;9.428;2024-03-22T04:14:44;22.53;;;18.30;;
1509;SDS011;746;48.688;9.428;2024-03-22T04:17:04;22.13;;;18.23;;
1509;SDS011;746;48.688;9.428;2024-03-22T04:19:26;24.20;;;19.40;;
1509;SDS011;746;48.688;9.428;2024-03-22T04:21:47;23.20;;;19.43;;
1509;SDS011;746;48.688;9.428;2024-03-22T04:24:10;23.93;;;19.67;;
1509;SDS011;746;48.688;9.428;2024-03-22T04:26:30;23.70;;;18.90;;
1509;SDS011;746;48.688;9.428;2024-03-22T04:28:52;23.30;;;19.93;;
1509;SDS011;746;48.688;9.428;2024-03-22T04:31:12;23.17;;;18.20;;
1509;SDS011;746;48.688;9.428;2024-03-22T04:33:33;21.30;;;17.07;;
1509;SDS011;746;48.688;9.428;2024-03-22T04:36:14;23.47;;;18.37;;
1509;SDS011;746;48.688;9.428;2024-03-22T04:38:35;23.90;;;18.47;;
1509;SDS011;746;48.688;9.428;2024-03-22T04:40:57;25.33;;;19.30;;
1509;SDS011;746;48.688;9.428;2024-03-22T04:43:18;22.70;;;18.17;;
1509;SDS011;746;48.688;9.428;2024-03-22T04:45:41;25.53;;;19.97;;
1509;SDS011;746;48.688;9.428;2024-03-22T04:48:01;22.50;;;18.77;;
1509;SDS011;746;48.688;9.428;2024-03-22T04:50:22;22.97;;;19.07;;
1509;SDS011;746;48.688;9.428;2024-03-22T04:52:43;23.67;;;19.67;;
1509;SDS011;746;48.688;9.428;2024-03-22T04:55:04;21.83;;;18.03;;
1509;SDS011;746;48.688;9.428;2024-03-22T04:57:25;25.90;;;19.40;;
1509;SDS011;746;48.688;9.428;2024-03-22T04:59:46;28.37;;;20.60;;
1509;SDS011;746;48.688;9.428;2024-03-22T05:02:07;24.63;;;19.47;;
1509;SDS011;746;48.688;9.428;2024-03-22T05:04:28;24.80;;;19.57;;
1509;SDS011;746;48.688;9.428;2024-03-22T05:06:49;23.40;;;19.80;;
1509;SDS011;746;48.688;9.428;2024-03-22T05:09:12;24.70;;;19.70;;
1509;SDS011;746;48.688;9.428;2024-03-22T05:11:32;24.43;;;19.30;;
1509;SDS011;746;48.688;9.428;2024-03-22T05:13:53;31.63;;;22.70;;
1509;SDS011;746;48.688;9.428;2024-03-22T05:16:14;28.97;;;21.83;;
1509;SDS011;746;48.688;9.428;2024-03-22T05:18:35;27.73;;;20.20;;
1509;SDS011;746;48.688;9.428;2024-03-22T05:20:55;25.97;;;21.30;;
1509;SDS011;746;48.688;9.428;2024-03-22T05:23:17;28.63;;;20.97;;
1509;SDS011;746;48.688;9.428;2024-03-22T05:25:39;25.87;;;21.23;;
1509;SDS011;746;48.688;9.428;2024-03-22T05:28:00;27.63;;;21.70;;
1509;SDS011;746;48.688;9.428;2024-03-22T05:30:25;28.57;;;22.40;;
1509;SDS011;746;48.688;9.428;2024-03-22T05:32:45;29.37;;;22.67;;
1509;SDS011;746;48.688;9.428;2024-03-22T05:35:08;28.47;;;23.13;;
1509;SDS011;746;48.688;9.428;2024-03-22T05:37:28;29.97;;;23.57;;
1509;SDS011;746;48.688;9.428;2024-03-22T05:39:49;29.87;;;23.20;;
1509;SDS011;746;48.688;9.428;2024-03-22T05:42:11;30.93;;;23.87;;
1509;SDS011;746;48.688;9.428;2024-03-22T05:44:32;27.13;;;21.60;;
1509;SDS011;746;48.688;9.428;2024-03-22T05:46:52;29.77;;;22.80;;
1509;SDS011;746;48.688;9.428;2024-03-22T05:49:13;30.70;;;22.40;;
1509;SDS011;746;48.688;9.428;2024-03-22T05:51:33;29.13;;;22.27;;
1509;SDS011;746;48.688;9.428;2024-03-22T05:53:55;26.87;;;22.17;;
1509;SDS011;746;48.688;9.428;2024-03-22T05:56:16;27.70;;;22.23;;
1509;SDS011;746;48.688;9.428;2024-03-22T05:58:39;27.27;;;21.23;;
1509;SDS011;746;48.688;9.428;2024-03-22T06:00:59;28.17;;;21.17;;
1509;SDS011;746;48.688;9.428;2024-03-22T06:03:21;25.37;;;20.83;;
1509;SDS011;746;48.688;9.428;2024-03-22T06:05:41;27.97;;;20.93;;
1509;SDS011;746;48.688;9.428;2024-03-22T06:08:02;27.67;;;22.20;;
1509;SDS011;746;48.688;9.428;2024-03-22T06:10:24;28.93;;;22.43;;
1509;SDS011;746;48.688;9.428;2024-03-22T06:12:45;31.03;;;23.63;;
1509;SDS011;746;48.688;9.428;2024-03-22T06:15:08;27.53;;;23.50;;
1509;SDS011;746;48.688;9.428;2024-03-22T06:17:29;29.77;;;22.50;;
1509;SDS011;746;48.688;9.428;2024-03-22T06:19:51;28.63;;;23.37;;
1509;SDS011;746;48.688;9.428;2024-03-22T06:22:11;28.63;;;22.47;;
1509;SDS011;746;48.688;9.428;2024-03-22T06:24:32;24.20;;;20.67;;
1509;SDS011;746;48.688;9.428;2024-03-22T06:26:52;24.90;;;20.47;;
1509;SDS011;746;48.688;9.428;2024-03-22T06:29:13;25.50;;;20.87;;
1509;SDS011;746;48.688;9.428;2024-03-22T06:31:37;22.73;;;19.43;;
1509;SDS011;746;48.688;9.428;2024-03-22T06:33:58;25.83;;;20.73;;
1509;SDS011;746;48.688;9.428;2024-03-22T06:36:22;26.80;;;21.40;;
1509;SDS011;746;48.688;9.428;2024-03-22T06:38:43;25.13;;;20.67;;
1509;SDS011;746;48.688;9.428;2024-03-22T06:41:04;24.20;;;21.20;;
1509;SDS011;746;48.688;9.428;2024-03-22T06:43:25;21.93;;;18.77;;
1509;SDS011;746;48.688;9.428;2024-03-22T06:45:45;20.27;;;16.93;;
1509;SDS011;746;48.688;9.428;2024-03-22T06:48:08;19.40;;;16.43;;
1509;SDS011;746;48.688;9.428;2024-03-22T06:50:29;21.97;;;18.50;;
1509;SDS011;746;48.688;9.428;2024-03-22T06:52:50;26.03;;;20.23;;
1509;SDS011;746;48.688;9.428;2024-03-22T06:55:11;23.73;;;20.23;;
1509;SDS011;746;48.688;9.428;2024-03-22T06:57:32;24.47;;;19.67;;
1509;SDS011;746;48.688;9.428;2024-03-22T06:59:53;25.20;;;19.93;;
1509;SDS011;746;48.688;9.428;2024-03-22T07:02:15;21.70;;;19.40;;
1509;SDS011;746;48.688;9.428;2024-03-22T07:04:37;22.93;;;18.53;;
1509;SDS011;746;48.688;9.428;2024-03-22T07:06:58;20.37;;;18.20;;
1509;SDS011;746;48.688;9.428;2024-03-22T07:09:19;22.00;;;19.30;;
1509;SDS011;746;48.688;9.428;2024-03-22T07:11:40;24.50;;;20.10;;
1509;SDS011;746;48.688;9.428;2024-03-22T07:14:00;21.27;;;18.60;;
1509;SDS011;746;48.688;9.428;2024-03-22T07:16:21;21.97;;;18.43;;
1509;SDS011;746;48.688;9.428;2024-03-22T07:18:41;23.80;;;18.97;;
1509;SDS011;746;48.688;9.428;2024-03-22T07:21:06;23.30;;;20.00;;
1509;SDS011;746;48.688;9.428;2024-03-22T07:23:27;23.33;;;18.20;;
1509;SDS011;746;48.688;9.428;2024-03-22T07:25:48;24.30;;;20.27;;
1509;SDS011;746;48.688;9.428;2024-03-22T07:28:08;22.20;;;19.00;;
1509;SDS011;746;48.688;9.428;2024-03-22T07:30:29;22.50;;;18.93;;
1509;SDS011;746;48.688;9.428;2024-03-22T07:32:49;22.47;;;16.97;;
1509;SDS011;746;48.688;9.428;2024-03-22T07:35:10;19.80;;;16.83;;
1509;SDS011;746;48.688;9.428;2024-03-22T07:37:33;19.23;;;16.90;;
1509;SDS011;746;48.688;9.428;2024-03-22T07:39:54;18.10;;;16.13;;
1509;SDS011;746;48.688;9.428;2024-03-22T07:42:15;18.23;;;16.00;;
1509;SDS011;746;48.688;9.428;2024-03-22T07:44:36;17.57;;;15.57;;
1509;SDS011;746;48.688;9.428;2024-03-22T07:46:56;18.30;;;15.23;;
1509;SDS011;746;48.688;9.428;2024-03-22T07:49:17;17.67;;;15.80;;
1509;SDS011;746;48.688;9.428;2024-03-22T07:51:38;19.50;;;15.87;;
1509;SDS011;746;48.688;9.428;2024-03-22T07:54:00;17.87;;;16.00;;
1509;SDS011;746;48.688;9.428;2024-03-22T07:56:22;21.43;;;16.33;;
1509;SDS011;746;48.688;9.428;2024-03-22T07:58:43;19.83;;;15.53;;
1509;SDS011;746;48.688;9.428;2024-03-22T08:01:03;17.00;;;15.20;;
1509;SDS011;746;48.688;9.428;2024-03-22T08:03:24;17.53;;;15.27;;
1509;SDS011;746;48.688;9.428;2024-03-22T08:05:45;16.33;;;14.63;;
1509;SDS011;746;48.688;9.428;2024-03-22T08:08:06;17.53;;;14.10;;
1509;SDS011;746;48.688;9.428;2024-03-22T08:10:28;17.20;;;14.67;;
1509;SDS011;746;48.688;9.428;2024-03-22T08:12:49;17.97;;;14.93;;
1509;SDS011;746;48.688;9.428;2024-03-22T08:15:10;18.13;;;15.57;;
1509;SDS011;746;48.688;9.428;2024-03-22T08:17:31;16.13;;;14.33;;
1509;SDS011;746;48.688;9.428;2024-03-22T08:19:51;16.87;;;14.43;;
1509;SDS011;746;48.688;9.428;2024-03-22T08:22:12;15.00;;;13.23;;
1509;SDS011;746;48.688;9.428;2024-03-22T08:24:33;14.97;;;13.43;;
1509;SDS011;746;48.688;9.428;2024-03-22T08:26:56;14.23;;;12.83;;
1509;SDS011;746;48.688;9.428;2024-03-22T08:29:16;15.07;;;12.97;;
1509;SDS011;746;48.688;9.428;2024-03-22T08:31:37;14.57;;;12.57;;
1509;SDS011;746;48.688;9.428;2024-03-22T08:33:57;16.00;;;12.73;;
1509;SDS011;746;48.688;9.428;2024-03-22T08:36:18;13.00;;;11.67;;
1509;SDS011;746;48.688;9.428;2024-03-22T08:38:39;12.90;;;11.60;;
1509;SDS011;746;48.688;9.428;2024-03-22T08:41:00;12.57;;;11.17;;
1509;SDS011;746;48.688;9.428;2024-03-22T08:43:22;12.27;;;10.17;;
1509;SDS011;746;48.688;9.428;2024-03-22T08:45:45;12.93;;;11.17;;
1509;SDS011;746;48.688;9.428;2024-03-22T08:48:05;12.30;;;11.03;;
1509;SDS011;746;48.688;9.428;2024-03-22T08:50:27;12.17;;;10.80;;
1509;SDS011;746;48.688;9.428;2024-03-22T08:52:47;12.50;;;11.10;;
1509;SDS011;746;48.688;9.428;2024-03-22T08:55:09;11.80;;;10.60;;
1509;SDS011;746;48.688;9.428;2024-03-22T08:57:30;13.43;;;10.47;;
1509;SDS011;746;48.688;9.428;2024-03-22T08:59:53;14.07;;;10.63;;
1509;SDS011;746;48.688;9.428;2024-03-22T09:02:14;13.13;;;10.70;;
1509;SDS011;746;48.688;9.428;2024-03-22T09:04:36;11.60;;;10.00;;
1509;SDS011;746;48.688;9.428;2024-03-22T09:06:56;12.13;;;10.40;;
1509;SDS011;746;48.688;9.428;2024-03-22T09:09:18;11.97;;;10.40;;
1509;SDS011;746;48.688;9.428;2024-03-22T09:11:39;11.87;;;10.60;;
1509;SDS011;746;48.688;9.428;2024-03-22T09:14:00;10.70;;;9.60;;
1509;SDS011;746;48.688;9.428;2024-03-22T09:16:13;11.07;;;9.97;;
1509;SDS011;746;48.688;9.428;2024-03-22T09:18:34;12.63;;;10.73;;
1509;SDS011;746;48.688;9.428;2024-03-22T09:20:55;10.83;;;9.73;;
1509;SDS011;746;48.688;9.428;2024-03-22T09:23:16;11.20;;;9.90;;
1509;SDS011;746;48.688;9.428;2024-03-22T09:25:36;12.50;;;10.10;;
1509;SDS011;746;48.688;9.428;2024-03-22T09:27:57;10.40;;;9.20;;
1509;SDS011;746;48.688;9.428;2024-03-22T09:30:17;12.53;;;9.73;;
1509;SDS011;746;48.688;9.428;2024-03-22T09:32:40;10.40;;;9.00;;
1509;SDS011;746;48.688;9.428;2024-03-22T09:35:00;11.83;;;9.43;;
1509;SDS011;746;48.688;9.428;2024-03-22T09:37:21;11.70;;;9.87;;
1509;SDS011;746;48.688;9.428;2024-03-22T09:39:42;11.43;;;10.17;;
1509;SDS011;746;48.688;9.428;2024-03-22T09:42:04;10.50;;;9.10;;
1509;SDS011;746;48.688;9.428;2024-03-22T09:44:26;10.40;;;9.00;;
1509;SDS011;746;48.688;9.428;2024-03-22T09:46:48;12.47;;;10.07;;
1509;SDS011;746;48.688;9.428;2024-03-22T09:49:11;9.53;;;8.57;;
1509;SDS011;746;48.688;9.428;2024-03-22T09:51:33;9.70;;;8.77;;
1509;SDS011;746;48.688;9.428;2024-03-22T09:53:54;9.60;;;8.60;;
1509;SDS011;746;48.688;9.428;2024-03-22T09:56:15;8.77;;;7.97;;
1509;SDS011;746;48.688;9.428;2024-03-22T09:58:37;9.73;;;7.80;;
1509;SDS011;746;48.688;9.428;2024-03-22T10:00:59;8.60;;;7.80;;
1509;SDS011;746;48.688;9.428;2024-03-22T10:03:21;8.40;;;7.60;;
1509;SDS011;746;48.688;9.428;2024-03-22T10:05:43;7.43;;;6.67;;
1509;SDS011;746;48.688;9.428;2024-03-22T10:08:04;8.43;;;7.33;;
1509;SDS011;746;48.688;9.428;2024-03-22T10:10:25;8.10;;;7.30;;
1509;SDS011;746;48.688;9.428;2024-03-22T10:12:45;7.83;;;7.10;;
1509;SDS011;746;48.688;9.428;2024-03-22T10:15:07;8.40;;;7.60;;
1509;SDS011;746;48.688;9.428;2024-03-22T10:17:28;8.47;;;7.67;;
1509;SDS011;746;48.688;9.428;2024-03-22T10:19:49;7.97;;;7.07;;
1509;SDS011;746;48.688;9.428;2024-03-22T10:22:12;7.83;;;7.03;;
1509;SDS011;746;48.688;9.428;2024-03-22T10:24:37;12.10;;;8.30;;
1509;SDS011;746;48.688;9.428;2024-03-22T10:26:57;9.10;;;7.50;;
1509;SDS011;746;48.688;9.428;2024-03-22T10:29:18;7.80;;;7.03;;
1509;SDS011;746;48.688;9.428;2024-03-22T10:31:39;7.53;;;6.93;;
1509;SDS011;746;48.688;9.428;2024-03-22T10:34:01;8.50;;;7.60;;
1509;SDS011;746;48.688;9.428;2024-03-22T10:36:24;9.27;;;8.30;;
1509;SDS011;746;48.688;9.428;2024-03-22T10:38:46;8.03;;;7.23;;
1509;SDS011;746;48.688;9.428;2024-03-22T10:41:11;10.27;;;7.33;;
1509;SDS011;746;48.688;9.428;2024-03-22T10:43:32;7.73;;;7.03;;
1509;SDS011;746;48.688;9.428;2024-03-22T10:45:52;7.33;;;6.70;;
1509;SDS011;746;48.688;9.428;2024-03-22T10:48:17;7.37;;;6.67;;
1509;SDS011;746;48.688;9.428;2024-03-22T10:50:40;6.83;;;6.13;;
1509;SDS011;746;48.688;9.428;2024-03-22T10:53:03;6.83;;;6.17;;
1509;SDS011;746;48.688;9.428;2024-03-22T10:55:28;8.70;;;6.47;;
1509;SDS011;746;48.688;9.428;2024-03-22T10:57:51;8.77;;;7.87;;
1509;SDS011;746;48.688;9.428;2024-03-22T11:00:12;8.27;;;7.07;;
1509;SDS011;746;48.688;9.428;2024-03-22T11:02:35;6.97;;;6.27;;
1509;SDS011;746;48.688;9.428;2024-03-22T11:04:58;7.00;;;6.40;;
1509;SDS011;746;48.688;9.428;2024-03-22T11:07:20;7.30;;;6.70;;
1509;SDS011;746;48.688;9.428;2024-03-22T11:09:40;7.13;;;6.53;;
1509;SDS011;746;48.688;9.428;2024-03-22T11:12:02;7.03;;;6.33;;
1509;SDS011;746;48.688;9.428;2024-03-22T11:14:24;6.90;;;6.30;;
1509;SDS011;746;48.688;9.428;2024-03-22T11:16:45;6.93;;;6.27;;
1509;SDS011;746;48.688;9.428;2024-03-22T11:19:05;7.07;;;6.37;;
1509;SDS011;746;48.688;9.428;2024-03-22T11:21:27;9.60;;;7.73;;
1509;SDS011;746;48.688;9.428;2024-03-22T11:23:50;8.40;;;7.37;;
1509;SDS011;746;48.688;9.428;2024-03-22T11:26:11;7.43;;;6.50;;
1509;SDS011;746;48.688;9.428;2024-03-22T11:28:33;7.97;;;6.70;;
1509;SDS011;746;48.688;9.428;2024-03-22T11:30:54;7.37;;;6.70;;
1509;SDS011;746;48.688;9.428;2024-03-22T11:33:14;7.47;;;6.73;;
1509;SDS011;746;48.688;9.428;2024-03-22T11:35:35;7.53;;;6.60;;
1509;SDS011;746;48.688;9.428;2024-03-22T11:37:55;8.00;;;7.20;;
1509;SDS011;746;48.688;9.428;2024-03-22T11:40:18;7.33;;;6.63;;
1509;SDS011;746;48.688;9.428;2024-03-22T11:42:40;6.03;;;5.53;;
1509;SDS011;746;48.688;9.428;2024-03-22T11:45:04;5.40;;;5.00;;
1509;SDS011;746;48.688;9.428;2024-03-22T11:47:27;6.33;;;5.73;;
1509;SDS011;746;48.688;9.428;2024-03-22T11:49:48;7.03;;;5.87;;
1509;SDS011;746;48.688;9.428;2024-03-22T11:52:08;8.43;;;6.37;;
1509;SDS011;746;48.688;9.428;2024-03-22T11:54:30;6.90;;;6.30;;
1509;SDS011;746;48.688;9.428;2024-03-22T11:56:51;7.37;;;6.67;;
1509;SDS011;746;48.688;9.428;2024-03-22T11:59:12;7.80;;;6.03;;
1509;SDS011;746;48.688;9.428;2024-03-22T12:01:33;5.97;;;5.43;;
1509;SDS011;746;48.688;9.428;2024-03-22T12:03:55;6.20;;;5.60;;
1509;SDS011;746;48.688;9.428;2024-03-22T12:06:15;7.10;;;5.07;;
1509;SDS011;746;48.688;9.428;2024-03-22T12:08:36;5.90;;;5.40;;
1509;SDS011;746;48.688;9.428;2024-03-22T12:10:58;5.60;;;5.10;;
1509;SDS011;746;48.688;9.428;2024-03-22T12:13:19;5.90;;;5.40;;
1509;SDS011;746;48.688;9.428;2024-03-22T12:15:39;6.00;;;5.50;;
1509;SDS011;746;48.688;9.428;2024-03-22T12:18:02;5.20;;;4.80;;
1509;SDS011;746;48.688;9.428;2024-03-22T12:20:22;5.53;;;5.03;;
1509;SDS011;746;48.688;9.428;2024-03-22T12:22:43;5.37;;;4.97;;
1509;SDS011;746;48.688;9.428;2024-03-22T12:25:04;5.80;;;5.07;;
1509;SDS011;746;48.688;9.428;2024-03-22T12:27:26;6.17;;;5.57;;
1509;SDS011;746;48.688;9.428;2024-03-22T12:29:46;6.47;;;5.30;;
1509;SDS011;746;48.688;9.428;2024-03-22T12:32:08;5.10;;;4.70;;
1509;SDS011;746;48.688;9.428;2024-03-22T12:34:29;7.30;;;5.77;;
1509;SDS011;746;48.688;9.428;2024-03-22T12:36:52;6.50;;;5.70;;
1509;SDS011;746;48.688;9.428;2024-03-22T12:39:14;5.63;;;5.03;;
1509;SDS011;746;48.688;9.428;2024-03-22T12:41:36;5.83;;;5.30;;
1509;SDS011;746;48.688;9.428;2024-03-22T12:43:56;6.57;;;5.10;;
1509;SDS011;746;48.688;9.428;2024-03-22T12:46:18;6.90;;;6.30;;
1509;SDS011;746;48.688;9.428;2024-03-22T12:48:41;6.10;;;5.50;;
1509;SDS011;746;48.688;9.428;2024-03-22T12:51:03;4.80;;;4.50;;
1509;SDS011;746;48.688;9.428;2024-03-22T12:53:24;5.60;;;5.10;;
1509;SDS011;746;48.688;9.428;2024-03-22T12:55:45;6.37;;;4.83;;
1509;SDS011;746;48.688;9.428;2024-03-22T12:58:05;7.13;;;4.90;;
1509;SDS011;746;48.688;9.428;2024-03-22T13:00:26;5.07;;;4.67;;
1509;SDS011;746;48.688;9.428;2024-03-22T13:02:47;6.07;;;5.57;;
1509;SDS011;746;48.688;9.428;2024-03-22T13:05:08;5.60;;;5.10;;
1509;SDS011;746;48.688;9.428;2024-03-22T13:07:30;10.53;;;5.60;;
1509;SDS011;746;48.688;9.428;2024-03-22T13:09:51;7.17;;;5.63;;
1509;SDS011;746;48.688;9.428;2024-03-22T13:12:12;5.80;;;5.30;;
1509;SDS011;746;48.688;9.428;2024-03-22T13:14:33;6.10;;;5.10;;
1509;SDS011;746;48.688;9.428;2024-03-22T13:16:53;6.13;;;5.30;;
1509;SDS011;746;48.688;9.428;2024-03-22T13:19:14;5.13;;;4.63;;
1509;SDS011;746;48.688;9.428;2024-03-22T13:21:35;5.13;;;4.50;;
1509;SDS011;746;48.688;9.428;2024-03-22T13:23:57;5.40;;;4.90;;
1509;SDS011;746;48.688;9.428;2024-03-22T13:26:17;5.77;;;4.67;;
1509;SDS011;746;48.688;9.428;2024-03-22T13:28:39;8.97;;;4.60;;
1509;SDS011;746;48.688;9.428;2024-03-22T13:31:01;5.30;;;4.37;;
1509;SDS011;746;48.688;9.428;2024-03-22T13:33:25;4.50;;;4.07;;
1509;SDS011;746;48.688;9.428;2024-03-22T13:35:45;5.90;;;4.80;;
1509;SDS011;746;48.688;9.428;2024-03-22T13:38:07;5.07;;;4.53;;
1509;SDS011;746;48.688;9.428;2024-03-22T13:40:34;4.80;;;4.40;;
1509;SDS011;746;48.688;9.428;2024-03-22T13:42:55;4.57;;;4.17;;
1509;SDS011;746;48.688;9.428;2024-03-22T13:45:15;5.10;;;4.70;;
1509;SDS011;746;48.688;9.428;2024-03-22T13:47:36;4.90;;;4.37;;
1509;SDS011;746;48.688;9.428;2024-03-22T13:49:56;4.87;;;4.37;;
1509;SDS011;746;48.688;9.428;2024-03-22T13:52:18;4.83;;;4.33;;
1509;SDS011;746;48.688;9.428;2024-03-22T13:54:40;6.03;;;4.47;;
1509;SDS011;746;48.688;9.428;2024-03-22T13:57:03;4.43;;;4.00;;
1509;SDS011;746;48.688;9.428;2024-03-22T13:59:24;4.60;;;4.20;;
1509;SDS011;746;48.688;9.428;2024-03-22T14:01:45;3.87;;;3.57;;
1509;SDS011;746;48.688;9.428;2024-03-22T14:04:07;3.40;;;3.27;;
1509;SDS011;746;48.688;9.428;2024-03-22T14:06:30;3.97;;;3.57;;
1509;SDS011;746;48.688;9.428;2024-03-22T14:08:51;3.80;;;3.40;;
1509;SDS011;746;48.688;9.428;2024-03-22T14:11:19;3.40;;;3.20;;
1509;SDS011;746;48.688;9.428;2024-03-22T14:13:41;5.13;;;3.90;;
1509;SDS011;746;48.688;9.428;2024-03-22T14:16:02;4.57;;;3.77;;
1509;SDS011;746;48.688;9.428;2024-03-22T14:18:23;4.87;;;3.47;;
1509;SDS011;746;48.688;9.428;2024-03-22T14:20:45;4.33;;;3.97;;
1509;SDS011;746;48.688;9.428;2024-03-22T14:23:05;4.63;;;3.80;;
1509;SDS011;746;48.688;9.428;2024-03-22T14:25:27;4.80;;;4.30;;
1509;SDS011;746;48.688;9.428;2024-03-22T14:27:47;4.33;;;4.00;;
1509;SDS011;746;48.688;9.428;2024-03-22T14:30:10;4.40;;;4.10;;
1509;SDS011;746;48.688;9.428;2024-03-22T14:32:33;4.73;;;4.20;;